createdAt,value
2022-09-09T00:00:48.049Z,13.80
2022-09-09T00:03:20.823Z,13.80
2022-09-09T00:05:59.584Z,13.90
2022-09-09T00:08:35.151Z,13.90
2022-09-09T00:11:07.588Z,13.90
2022-09-09T00:13:43.614Z,14.00
2022-09-09T00:16:17.743Z,14.10
2022-09-09T00:18:55.739Z,14.00
2022-09-09T00:21:27.139Z,14.10
2022-09-09T00:23:56.661Z,14.10
2022-09-09T00:26:31.608Z,14.20
2022-09-09T00:29:07.308Z,14.20
2022-09-09T00:31:35.231Z,14.20
2022-09-09T00:34:13.840Z,14.20
2022-09-09T00:36:44.589Z,14.30
2022-09-09T00:39:19.361Z,14.30
2022-09-09T00:41:57.443Z,14.30
2022-09-09T00:44:35.575Z,14.30
2022-09-09T00:47:20.616Z,14.40
2022-09-09T00:50:02.707Z,14.40
2022-09-09T00:52:39.486Z,14.40
2022-09-09T00:55:13.662Z,14.40
2022-09-09T00:57:42.493Z,14.40
2022-09-09T01:00:24.195Z,14.40
2022-09-09T01:03:21.692Z,14.40
2022-09-09T01:05:58.517Z,14.40
2022-09-09T01:08:43.115Z,14.30
2022-09-09T01:11:19.329Z,14.20
2022-09-09T01:13:49.787Z,14.20
2022-09-09T01:16:19.585Z,14.10
2022-09-09T01:18:51.482Z,14.10
2022-09-09T01:21:29.197Z,14.00
2022-09-09T01:24:12.655Z,13.90
2022-09-09T01:26:43.320Z,13.90
2022-09-09T01:29:14.361Z,13.80
2022-09-09T01:31:44.110Z,13.80
2022-09-09T01:34:13.941Z,13.80
2022-09-09T01:36:45.497Z,13.80
2022-09-09T01:39:14.460Z,13.70
2022-09-09T01:41:43.673Z,13.70
2022-09-09T01:44:12.817Z,13.60
2022-09-09T01:46:40.737Z,13.60
2022-09-09T01:49:10.216Z,13.60
2022-09-09T01:51:40.932Z,13.50
2022-09-09T01:54:09.552Z,13.50
2022-09-09T01:56:46.174Z,13.50
2022-09-09T01:59:29.735Z,13.50
2022-09-09T02:02:09.612Z,13.40
2022-09-09T02:04:42.795Z,13.40
2022-09-09T02:07:38.832Z,13.40
2022-09-09T02:10:12.245Z,13.40
2022-09-09T02:12:45.788Z,13.40
2022-09-09T02:15:19.437Z,13.40
2022-09-09T02:17:50.694Z,13.30
2022-09-09T02:20:20.497Z,13.40
2022-09-09T02:22:51.408Z,13.40
2022-09-09T02:25:22.396Z,13.40
2022-09-09T02:27:53.288Z,13.40
2022-09-09T02:30:22.478Z,13.50
2022-09-09T02:32:57.856Z,13.50
2022-09-09T02:35:27.177Z,13.50
2022-09-09T02:38:00.146Z,13.50
2022-09-09T02:40:28.025Z,13.50
2022-09-09T02:42:57.574Z,13.60
2022-09-09T02:45:28.612Z,13.60
2022-09-09T02:48:05.572Z,13.60
2022-09-09T02:50:36.287Z,13.60
2022-09-09T02:53:12.053Z,13.60
2022-09-09T02:55:43.225Z,13.60
2022-09-09T02:58:17.776Z,13.60
2022-09-09T03:00:47.438Z,13.60
2022-09-09T03:03:16.980Z,13.60
2022-09-09T03:05:45.091Z,13.60
2022-09-09T03:08:13.903Z,13.60
2022-09-09T03:10:42.055Z,13.60
2022-09-09T03:13:13.132Z,13.50
2022-09-09T03:15:41.222Z,13.50
2022-09-09T03:18:09.109Z,13.50
2022-09-09T03:20:36.886Z,13.50
2022-09-09T03:23:05.028Z,13.50
2022-09-09T03:25:32.934Z,13.50
2022-09-09T03:28:01.300Z,13.50
2022-09-09T03:30:30.694Z,13.50
2022-09-09T03:32:58.729Z,13.40
2022-09-09T03:35:26.514Z,13.40
2022-09-09T03:37:55.943Z,13.40
2022-09-09T03:40:24.520Z,13.30
2022-09-09T03:43:01.006Z,13.30
2022-09-09T03:45:28.840Z,13.30
2022-09-09T03:47:58.033Z,13.30
2022-09-09T03:50:25.739Z,13.20
2022-09-09T03:52:53.431Z,13.20
2022-09-09T03:55:21.102Z,13.20
2022-09-09T03:57:48.764Z,13.20
2022-09-09T04:00:18.047Z,13.20
2022-09-09T04:02:46.774Z,13.20
2022-09-09T04:05:15.525Z,13.20
2022-09-09T04:07:43.217Z,13.20
2022-09-09T04:10:12.504Z,13.20
2022-09-09T04:12:40.282Z,13.10
2022-09-09T04:15:09.037Z,13.10
2022-09-09T04:17:38.257Z,13.10
2022-09-09T04:20:08.568Z,13.10
2022-09-09T04:22:36.322Z,13.10
2022-09-09T04:25:04.158Z,13.10
2022-09-09T04:27:31.878Z,13.10
2022-09-09T04:29:59.847Z,13.10
2022-09-09T04:32:28.026Z,13.20
2022-09-09T04:34:57.095Z,13.20
2022-09-09T04:37:25.814Z,13.30
2022-09-09T04:39:53.541Z,13.30
2022-09-09T04:42:21.429Z,13.40
2022-09-09T04:44:49.124Z,13.40
2022-09-09T04:47:16.844Z,13.40
2022-09-09T04:49:44.561Z,13.50
2022-09-09T04:52:13.597Z,13.50
2022-09-09T04:54:41.282Z,13.50
2022-09-09T04:57:09.054Z,13.50
2022-09-09T04:59:36.796Z,13.50
2022-09-09T05:02:04.947Z,13.60
2022-09-09T05:04:34.016Z,13.50
2022-09-09T05:07:01.733Z,13.50
2022-09-09T05:09:33.509Z,13.50
2022-09-09T05:12:01.558Z,13.50
2022-09-09T05:14:29.243Z,13.50
2022-09-09T05:16:57.239Z,13.50
2022-09-09T05:19:25.487Z,13.50
2022-09-09T05:21:53.445Z,13.50
2022-09-09T05:24:21.386Z,13.50
2022-09-09T05:26:50.481Z,13.50
2022-09-09T05:29:20.319Z,13.60
2022-09-09T05:31:48.977Z,13.60
2022-09-09T05:34:16.792Z,13.60
2022-09-09T05:36:44.603Z,13.70
2022-09-09T05:39:12.945Z,13.70
2022-09-09T05:41:40.990Z,13.80
2022-09-09T05:44:10.016Z,13.90
2022-09-09T05:46:37.844Z,14.00
2022-09-09T05:49:06.431Z,14.10
2022-09-09T05:51:34.199Z,14.20
2022-09-09T05:54:02.087Z,14.30
2022-09-09T05:56:30.989Z,14.40
2022-09-09T05:59:00.941Z,14.40
2022-09-09T06:01:32.336Z,14.50
2022-09-09T06:04:00.366Z,14.60
2022-09-09T06:06:29.881Z,14.60
2022-09-09T06:08:59.456Z,14.60
2022-09-09T06:11:32.011Z,14.60
2022-09-09T06:14:00.140Z,14.70
2022-09-09T06:16:30.834Z,14.70
2022-09-09T06:18:59.568Z,14.80
2022-09-09T06:21:30.467Z,14.80
2022-09-09T06:24:01.022Z,14.80
2022-09-09T06:26:31.585Z,14.80
2022-09-09T06:29:00.586Z,14.90
2022-09-09T06:31:32.087Z,14.90
2022-09-09T06:34:00.815Z,15.00
2022-09-09T06:36:30.668Z,15.00
2022-09-09T06:38:58.822Z,15.10
2022-09-09T06:41:28.706Z,15.10
2022-09-09T06:43:57.357Z,15.20
2022-09-09T06:46:29.015Z,15.30
2022-09-09T06:49:00.640Z,15.30
2022-09-09T06:51:30.162Z,15.30
2022-09-09T06:53:59.869Z,15.40
2022-09-09T06:56:29.084Z,15.40
2022-09-09T06:58:59.354Z,15.50
2022-09-09T07:01:29.091Z,15.60
2022-09-09T07:03:59.766Z,15.60
2022-09-09T07:06:29.507Z,15.70
2022-09-09T07:08:59.957Z,15.70
2022-09-09T07:11:29.523Z,15.80
2022-09-09T07:13:58.971Z,15.80
2022-09-09T07:16:28.364Z,15.90
2022-09-09T07:18:58.798Z,16.00
2022-09-09T07:21:28.223Z,16.00
2022-09-09T07:23:56.465Z,16.00
2022-09-09T07:26:26.116Z,16.10
2022-09-09T07:28:54.681Z,16.10
2022-09-09T07:31:25.744Z,16.20
2022-09-09T07:33:53.796Z,16.20
2022-09-09T07:36:24.552Z,16.20
2022-09-09T07:38:54.482Z,16.20
2022-09-09T07:41:23.985Z,16.20
2022-09-09T07:43:52.613Z,16.20
2022-09-09T07:46:21.551Z,16.30
2022-09-09T07:48:52.183Z,16.30
2022-09-09T07:51:24.600Z,16.40
2022-09-09T07:53:55.068Z,16.50
2022-09-09T07:56:23.548Z,16.50
2022-09-09T07:58:52.965Z,16.60
2022-09-09T08:01:24.150Z,16.60
2022-09-09T08:03:56.709Z,16.70
2022-09-09T08:06:25.915Z,16.70
2022-09-09T08:08:53.817Z,16.80
2022-09-09T08:11:21.781Z,16.80
2022-09-09T08:13:53.792Z,16.80
2022-09-09T08:16:23.986Z,16.90
2022-09-09T08:18:52.394Z,17.00
2022-09-09T08:21:22.950Z,17.00
2022-09-09T08:23:57.964Z,17.00
2022-09-09T08:26:29.259Z,17.00
2022-09-09T08:28:59.258Z,17.00
2022-09-09T08:31:28.969Z,17.10
2022-09-09T08:33:57.750Z,17.10
2022-09-09T08:36:27.524Z,17.10
2022-09-09T08:38:57.730Z,17.20
2022-09-09T08:41:39.124Z,17.20
2022-09-09T08:44:12.305Z,17.20
2022-09-09T08:46:48.942Z,17.30
2022-09-09T08:49:29.336Z,17.30
2022-09-09T08:51:58.529Z,17.40
2022-09-09T08:54:51.082Z,17.50
2022-09-09T08:57:27.625Z,17.50
2022-09-09T08:59:58.512Z,17.60
2022-09-09T09:02:32.330Z,17.70
2022-09-09T09:05:18.152Z,17.70
2022-09-09T09:07:57.633Z,17.80
2022-09-09T09:10:42.724Z,17.80
2022-09-09T09:13:17.820Z,17.80
2022-09-09T09:15:51.159Z,17.90
2022-09-09T09:18:19.392Z,17.90
2022-09-09T09:20:54.428Z,17.90
2022-09-09T09:23:25.363Z,18.00
2022-09-09T09:25:58.540Z,18.00
2022-09-09T09:28:27.808Z,18.10
2022-09-09T09:31:00.178Z,18.20
2022-09-09T09:33:32.950Z,18.30
2022-09-09T09:36:01.626Z,18.30
2022-09-09T09:41:31.201Z,18.60
2022-09-09T09:43:58.926Z,18.70
2022-09-09T09:46:28.804Z,18.80
2022-09-09T09:49:00.814Z,18.80
2022-09-09T09:51:30.326Z,18.90
2022-09-09T09:54:10.550Z,18.90
2022-09-09T09:56:40.344Z,18.90
2022-09-09T09:59:29.629Z,18.90
2022-09-09T10:02:21.670Z,19.00
2022-09-09T10:04:49.783Z,19.10
2022-09-09T10:07:21.015Z,19.20
2022-09-09T10:09:53.611Z,19.30
2022-09-09T10:12:32.025Z,19.30
2022-09-09T10:15:07.035Z,19.30
2022-09-09T10:17:43.394Z,19.30
2022-09-09T10:20:25.219Z,19.30
2022-09-09T10:22:56.032Z,19.40
2022-09-09T10:25:58.374Z,19.40
2022-09-09T10:28:44.208Z,19.40
2022-09-09T10:31:24.979Z,19.50
2022-09-09T10:33:58.197Z,19.60
2022-09-09T10:36:27.217Z,19.50
2022-09-09T10:39:00.522Z,19.50
2022-09-09T10:41:44.526Z,19.50
2022-09-09T10:44:36.980Z,19.50
2022-09-09T10:47:19.514Z,19.50
2022-09-09T10:50:01.697Z,19.60
2022-09-09T10:52:37.436Z,19.70
2022-09-09T10:55:13.947Z,19.80
2022-09-09T10:57:44.343Z,19.90
2022-09-09T11:00:21.388Z,19.90
2022-09-09T11:02:54.312Z,19.90
2022-09-09T11:05:26.755Z,19.90
2022-09-09T11:07:58.518Z,19.90
2022-09-09T11:10:32.417Z,19.90
2022-09-09T11:13:05.321Z,19.90
2022-09-09T11:15:42.891Z,19.90
2022-09-09T11:18:17.258Z,19.90
2022-09-09T11:20:47.090Z,19.80
2022-09-09T11:23:19.170Z,19.80
2022-09-09T11:25:53.510Z,19.80
2022-09-09T11:28:42.098Z,19.80
2022-09-09T11:31:29.712Z,19.80
2022-09-09T11:34:19.383Z,19.90
2022-09-09T11:37:02.815Z,20.10
2022-09-09T11:40:06.545Z,20.20
2022-09-09T11:42:34.380Z,20.50
2022-09-09T11:45:12.096Z,20.70
2022-09-09T11:47:43.774Z,20.90
2022-09-09T11:50:28.906Z,21.00
2022-09-09T11:53:23.511Z,21.00
2022-09-09T11:56:04.687Z,20.90
2022-09-09T11:58:39.936Z,20.80
2022-09-09T12:01:27.647Z,20.90
2022-09-09T12:04:23.016Z,21.10
2022-09-09T12:06:55.287Z,21.40
2022-09-09T12:09:29.262Z,21.50
2022-09-09T12:12:08.937Z,21.70
2022-09-09T12:14:40.132Z,21.70
2022-09-09T12:17:20.260Z,21.80
2022-09-09T12:19:49.497Z,21.60
2022-09-09T12:22:28.178Z,21.60
2022-09-09T12:25:05.839Z,21.50
2022-09-09T12:27:38.032Z,21.50
2022-09-09T12:30:10.886Z,21.40
2022-09-09T12:32:39.372Z,21.40
2022-09-09T12:35:15.059Z,21.40
2022-09-09T12:37:47.219Z,21.30
2022-09-09T12:40:23.120Z,21.30
2022-09-09T12:42:50.904Z,21.20
2022-09-09T12:45:21.276Z,21.10
2022-09-09T12:47:53.047Z,21.00
2022-09-09T12:50:26.652Z,20.80
2022-09-09T12:52:57.948Z,20.60
2022-09-09T12:55:31.008Z,20.40
2022-09-09T12:58:00.164Z,20.20
2022-09-09T13:00:29.264Z,20.10
2022-09-09T13:02:59.753Z,19.90
2022-09-09T13:05:30.621Z,19.70
2022-09-09T13:08:03.754Z,19.50
2022-09-09T13:10:49.774Z,19.20
2022-09-09T13:13:22.982Z,18.80
2022-09-09T13:15:53.229Z,18.40
2022-09-09T13:18:24.365Z,18.10
2022-09-09T13:20:53.908Z,17.80
2022-09-09T13:23:23.155Z,17.50
2022-09-09T13:25:58.492Z,17.30
2022-09-09T13:28:28.037Z,17.10
2022-09-09T13:31:03.768Z,16.90
2022-09-09T13:33:34.909Z,16.90
2022-09-09T13:36:06.520Z,16.80
2022-09-09T13:38:37.599Z,16.80
2022-09-09T13:41:07.997Z,16.80
2022-09-09T13:43:40.159Z,16.70
2022-09-09T13:46:26.966Z,16.80
2022-09-09T13:48:58.981Z,16.80
2022-09-09T13:51:37.983Z,16.80
2022-09-09T13:54:07.442Z,16.80
2022-09-09T13:56:36.148Z,16.80
2022-09-09T13:59:05.570Z,16.80
2022-09-09T14:01:34.011Z,16.80
2022-09-09T14:04:01.777Z,16.80
2022-09-09T14:06:30.134Z,16.80
2022-09-09T14:08:59.120Z,16.80
2022-09-09T14:11:26.834Z,16.80
2022-09-09T14:13:54.510Z,16.80
2022-09-09T14:16:22.635Z,16.80
2022-09-09T14:18:50.694Z,16.80
2022-09-09T14:21:19.049Z,16.90
2022-09-09T14:23:46.935Z,16.90
2022-09-09T14:26:16.347Z,16.90
2022-09-09T14:28:59.812Z,16.90
2022-09-09T14:31:27.786Z,16.90
2022-09-09T14:33:55.774Z,16.90
2022-09-09T14:36:23.821Z,16.80
2022-09-09T14:38:51.622Z,16.80
2022-09-09T14:41:23.437Z,16.90
2022-09-09T14:43:51.220Z,16.90
2022-09-09T14:46:21.159Z,16.90
2022-09-09T14:48:49.556Z,16.90
2022-09-09T14:51:20.413Z,16.90
2022-09-09T14:53:48.885Z,16.90
2022-09-09T14:56:18.818Z,17.00
2022-09-09T14:58:49.311Z,16.90
2022-09-09T15:01:19.006Z,17.00
2022-09-09T15:03:51.879Z,17.10
2022-09-09T15:06:20.338Z,17.10
2022-09-09T15:08:48.771Z,17.10
2022-09-09T15:11:17.214Z,17.20
2022-09-09T15:13:46.601Z,17.20
2022-09-09T15:16:16.035Z,17.30
2022-09-09T15:18:45.903Z,17.30
2022-09-09T15:21:14.578Z,17.40
2022-09-09T15:23:42.326Z,17.40
2022-09-09T15:26:11.311Z,17.40
2022-09-09T15:28:40.530Z,17.40
2022-09-09T15:31:12.871Z,17.40
2022-09-09T15:33:42.608Z,17.50
2022-09-09T15:36:18.305Z,17.50
2022-09-09T15:38:46.206Z,17.60
2022-09-09T15:41:14.415Z,17.60
2022-09-09T15:43:46.730Z,17.70
2022-09-09T15:46:28.166Z,17.70
2022-09-09T15:48:57.341Z,17.80
2022-09-09T15:51:44.037Z,17.80
2022-09-09T15:54:13.862Z,17.80
2022-09-09T15:56:42.504Z,17.90
2022-09-09T15:59:11.214Z,17.90
2022-09-09T16:01:41.731Z,18.00
2022-09-09T16:04:10.019Z,18.00
2022-09-09T16:06:37.935Z,18.00
2022-09-09T16:09:07.925Z,18.10
2022-09-09T16:11:37.703Z,18.10
2022-09-09T16:14:06.246Z,18.10
2022-09-09T16:16:35.982Z,18.10
2022-09-09T16:19:07.733Z,18.10
2022-09-09T16:21:38.503Z,18.00
2022-09-09T16:24:07.494Z,18.00
2022-09-09T16:26:38.069Z,18.00
2022-09-09T16:29:06.053Z,18.00
2022-09-09T16:31:34.937Z,17.90
2022-09-09T16:34:04.237Z,17.80
2022-09-09T16:36:35.856Z,17.80
2022-09-09T16:39:12.855Z,17.80
2022-09-09T16:41:42.243Z,17.60
2022-09-09T16:44:12.705Z,17.60
2022-09-09T16:46:42.520Z,17.50
2022-09-09T16:49:12.854Z,17.40
2022-09-09T16:51:44.726Z,17.40
2022-09-09T16:54:15.164Z,17.30
2022-09-09T16:56:44.803Z,17.20
2022-09-09T16:59:14.248Z,17.20
2022-09-09T17:01:44.506Z,17.10
2022-09-09T17:04:14.140Z,17.10
2022-09-09T17:06:45.705Z,17.00
2022-09-09T17:09:15.169Z,17.00
2022-09-09T17:11:43.145Z,16.90
2022-09-09T17:14:15.256Z,16.90
2022-09-09T17:16:43.104Z,16.80
2022-09-09T17:19:11.848Z,16.70
2022-09-09T17:22:00.127Z,16.70
2022-09-09T17:24:33.968Z,16.60
2022-09-09T17:27:02.330Z,16.60
2022-09-09T17:29:30.037Z,16.50
2022-09-09T17:31:57.945Z,16.40
2022-09-09T17:34:28.642Z,16.40
2022-09-09T17:36:59.225Z,16.30
2022-09-09T17:39:27.075Z,16.30
2022-09-09T17:41:56.149Z,16.20
2022-09-09T17:44:23.851Z,16.20
2022-09-09T17:46:51.705Z,16.10
2022-09-09T17:49:20.000Z,16.10
2022-09-09T17:51:48.359Z,16.00
2022-09-09T17:54:19.426Z,16.00
2022-09-09T17:56:48.883Z,16.00
2022-09-09T17:59:19.088Z,15.90
2022-09-09T18:01:49.427Z,15.80
2022-09-09T18:04:18.290Z,15.80
2022-09-09T18:06:47.638Z,15.80
2022-09-09T18:09:17.400Z,15.80
2022-09-09T18:11:47.184Z,15.70
2022-09-09T18:14:20.072Z,15.60
2022-09-09T18:16:48.496Z,15.60
2022-09-09T18:19:18.506Z,15.60
2022-09-09T18:21:46.325Z,15.60
2022-09-09T18:24:16.102Z,15.50
2022-09-09T18:26:44.271Z,15.50
2022-09-09T18:29:14.295Z,15.40
2022-09-09T18:31:43.509Z,15.40
2022-09-09T18:34:13.960Z,15.40
2022-09-09T18:36:44.739Z,15.40
2022-09-09T18:39:14.136Z,15.40
2022-09-09T18:41:44.059Z,15.40
2022-09-09T18:44:14.514Z,15.40
2022-09-09T18:46:44.711Z,15.40
2022-09-09T18:49:13.276Z,15.40
2022-09-09T18:51:42.762Z,15.40
2022-09-09T18:54:14.696Z,15.40
2022-09-09T18:56:43.165Z,15.40
2022-09-09T18:59:13.013Z,15.40
2022-09-09T19:01:42.259Z,15.40
2022-09-09T19:04:11.474Z,15.40
2022-09-09T19:06:42.227Z,15.40
2022-09-09T19:09:11.857Z,15.40
2022-09-09T19:11:40.838Z,15.40
2022-09-09T19:14:12.031Z,15.40
2022-09-09T19:16:41.489Z,15.30
2022-09-09T19:19:13.249Z,15.30
2022-09-09T19:21:42.269Z,15.30
2022-09-09T19:24:13.273Z,15.20
2022-09-09T19:26:43.907Z,15.20
2022-09-09T19:29:14.325Z,15.20
2022-09-09T19:31:53.571Z,15.10
2022-09-09T19:34:32.166Z,15.10
2022-09-09T19:37:00.121Z,15.20
2022-09-09T19:39:27.850Z,15.10
2022-09-09T19:41:55.755Z,15.10
2022-09-09T19:44:23.454Z,15.10
2022-09-09T19:46:51.166Z,15.10
2022-09-09T19:49:19.012Z,15.10
2022-09-09T19:51:48.058Z,15.20
2022-09-09T19:54:15.856Z,15.10
2022-09-09T19:56:44.519Z,15.10
2022-09-09T19:59:15.739Z,15.20
2022-09-09T20:01:45.710Z,15.10
2022-09-09T20:04:15.510Z,15.20
2022-09-09T20:06:45.141Z,15.20
2022-09-09T20:09:16.931Z,15.20
2022-09-09T20:11:46.404Z,15.30
2022-09-09T20:14:14.904Z,15.30
2022-09-09T20:16:43.440Z,15.30
2022-09-09T20:19:13.567Z,15.30
2022-09-09T20:21:47.362Z,15.30
2022-09-09T20:24:19.342Z,15.40
2022-09-09T20:26:48.311Z,15.40
2022-09-09T20:29:18.113Z,15.40
2022-09-09T20:31:46.464Z,15.40
2022-09-09T20:34:16.253Z,15.40
2022-09-09T20:36:44.492Z,15.40
2022-09-09T20:39:14.919Z,15.50
2022-09-09T20:41:45.914Z,15.50
2022-09-09T20:44:16.117Z,15.50
2022-09-09T20:46:47.917Z,15.40
2022-09-09T20:49:17.321Z,15.50
2022-09-09T20:51:45.853Z,15.50
2022-09-09T20:54:16.830Z,15.50
2022-09-09T20:56:48.024Z,15.60
2022-09-09T20:59:17.889Z,15.60
2022-09-09T21:01:47.319Z,15.70
2022-09-09T21:04:17.082Z,15.70
2022-09-09T21:06:45.748Z,15.70
2022-09-09T21:09:13.655Z,15.80
2022-09-09T21:11:41.905Z,15.80
2022-09-09T21:14:11.223Z,15.80
2022-09-09T21:16:38.966Z,15.80
2022-09-09T21:19:06.854Z,15.80
2022-09-09T21:21:36.109Z,15.90
2022-09-09T21:24:04.386Z,15.90
2022-09-09T21:26:32.328Z,15.90
2022-09-09T21:29:00.271Z,15.90
2022-09-09T21:31:29.357Z,15.90
2022-09-09T21:33:57.309Z,15.90
2022-09-09T21:36:27.277Z,15.90
2022-09-09T21:38:55.059Z,15.90
2022-09-09T21:41:22.775Z,15.90
2022-09-09T21:43:54.413Z,15.90
2022-09-09T21:46:23.075Z,15.90
2022-09-09T21:48:52.430Z,15.90
2022-09-09T21:51:20.102Z,15.80
2022-09-09T21:53:47.790Z,15.90
2022-09-09T21:56:18.592Z,15.80
2022-09-09T21:58:47.637Z,15.80
2022-09-09T22:01:17.639Z,15.80
2022-09-09T22:03:46.506Z,15.80
2022-09-09T22:06:17.962Z,15.80
2022-09-09T22:08:46.512Z,15.70
2022-09-09T22:11:16.718Z,15.70
2022-09-09T22:13:45.875Z,15.70
2022-09-09T22:16:15.451Z,15.70
2022-09-09T22:18:43.489Z,15.60
2022-09-09T22:21:13.567Z,15.60
2022-09-09T22:23:42.918Z,15.60
2022-09-09T22:26:11.335Z,15.60
2022-09-09T22:28:39.392Z,15.60
2022-09-09T22:31:07.553Z,15.60
2022-09-09T22:33:36.076Z,15.50
2022-09-09T22:36:04.783Z,15.60
2022-09-09T22:38:34.662Z,15.50
2022-09-09T22:41:04.114Z,15.50
2022-09-09T22:43:33.437Z,15.50
2022-09-09T22:46:02.283Z,15.50
2022-09-09T22:48:33.889Z,15.40
2022-09-09T22:51:05.895Z,15.40
2022-09-09T22:53:34.220Z,15.40
2022-09-09T22:56:06.181Z,15.40
2022-09-09T22:58:36.480Z,15.30
2022-09-09T23:01:11.288Z,15.30
2022-09-09T23:03:41.167Z,15.30
2022-09-09T23:06:11.962Z,15.30
2022-09-09T23:08:39.986Z,15.30
2022-09-09T23:11:11.859Z,15.30
2022-09-09T23:13:41.579Z,15.30
2022-09-09T23:16:13.335Z,15.30
2022-09-09T23:18:41.272Z,15.40
2022-09-09T23:21:09.666Z,15.40
2022-09-09T23:23:38.294Z,15.40
2022-09-09T23:26:07.105Z,15.40
2022-09-09T23:28:41.849Z,15.40
2022-09-09T23:31:10.994Z,15.40
2022-09-09T23:33:39.681Z,15.40
2022-09-09T23:36:09.125Z,15.40
2022-09-09T23:38:37.958Z,15.40
2022-09-09T23:41:08.222Z,15.40
2022-09-09T23:43:39.261Z,15.40
2022-09-09T23:46:08.691Z,15.40
2022-09-09T23:48:39.152Z,15.40
2022-09-09T23:51:09.473Z,15.40
2022-09-09T23:53:37.689Z,15.30
2022-09-09T23:56:06.109Z,15.30
2022-09-09T23:58:34.661Z,15.30
